Time;durP1;ratioP1;P1;durP2;ratioP2;P2;SDS_P1;SDS_P2;PMS_P1;PMS_P2;Temp;Humidity;BMP_temperature;BMP_pressure;BME280_temperature;BME280_humidity;BME280_pressure;Samples;Min_cycle;Max_cycle;Signal;HPM_P1;HPM_P2
2023/04/16 00:01:21;;;;;;;12.73;8.57;;;8.40;99.90;;;;;;4972210;28;20162;-66
2023/04/16 00:03:47;;;;;;;9.47;8.63;;;8.40;99.90;;;;;;4972775;28;20550;-66
2023/04/16 00:06:13;;;;;;;11.47;9.33;;;8.40;99.90;;;;;;4954300;28;20206;-65
2023/04/16 00:08:39;;;;;;;11.07;8.40;;;8.50;99.90;;;;;;4954096;28;20194;-66
2023/04/16 00:11:05;;;;;;;10.60;9.00;;;8.50;99.90;;;;;;4970518;28;20232;-66
2023/04/16 00:13:31;;;;;;;9.07;8.30;;;8.40;99.90;;;;;;4974437;28;20201;-66
2023/04/16 00:15:57;;;;;;;9.63;8.37;;;8.50;99.90;;;;;;4957201;28;20201;-66
2023/04/16 00:18:23;;;;;;;9.50;8.63;;;8.50;99.90;;;;;;4956817;29;20166;-66
2023/04/16 00:20:49;;;;;;;10.87;9.67;;;8.50;99.90;;;;;;4973923;28;20184;-66
2023/04/16 00:23:15;;;;;;;9.03;8.33;;;8.50;99.90;;;;;;4965481;28;20241;-66
2023/04/16 00:25:41;;;;;;;9.80;8.90;;;8.50;99.90;;;;;;4956718;29;20216;-66
2023/04/16 00:28:07;;;;;;;9.10;8.27;;;8.50;99.90;;;;;;4965484;28;20182;-66
2023/04/16 00:30:34;;;;;;;9.70;8.83;;;8.50;99.90;;;;;;4975527;28;20540;-66
2023/04/16 00:32:59;;;;;;;10.50;9.50;;;8.50;99.90;;;;;;4968464;28;20212;-66
2023/04/16 00:35:25;;;;;;;10.10;9.17;;;8.50;99.90;;;;;;4956489;29;20202;-66
2023/04/16 00:37:51;;;;;;;10.47;9.17;;;8.50;99.90;;;;;;4957750;28;20224;-66
2023/04/16 00:40:16;;;;;;;10.30;9.30;;;8.50;99.90;;;;;;4956094;29;20194;-66
2023/04/16 00:42:42;;;;;;;12.63;9.07;;;8.50;99.90;;;;;;4961506;28;20714;-67
2023/04/16 00:45:09;;;;;;;11.70;9.70;;;8.50;99.90;;;;;;4975251;28;20174;-67
2023/04/16 00:47:34;;;;;;;9.73;8.83;;;8.50;99.90;;;;;;4971772;28;20182;-66
2023/04/16 00:50:01;;;;;;;11.57;8.83;;;8.50;99.90;;;;;;4956100;28;20189;-66
2023/04/16 00:52:28;;;;;;;8.83;8.20;;;8.50;99.90;;;;;;4957994;28;20348;-66
2023/04/16 00:54:53;;;;;;;11.33;10.30;;;8.50;99.90;;;;;;4975665;28;20169;-66
2023/04/16 00:57:22;;;;;;;9.63;8.63;;;8.40;99.90;;;;;;4974586;28;20193;-67
2023/04/16 00:59:48;;;;;;;8.77;8.07;;;8.50;99.90;;;;;;4964022;28;20174;-66
2023/04/16 01:02:14;;;;;;;14.87;8.80;;;8.50;99.90;;;;;;4975355;28;20189;-66
2023/04/16 01:04:40;;;;;;;11.43;10.27;;;8.50;99.90;;;;;;4975328;28;20170;-66
2023/04/16 01:07:05;;;;;;;12.17;9.70;;;8.50;99.90;;;;;;4975312;28;20248;-65
2023/04/16 01:09:31;;;;;;;9.30;8.60;;;8.50;99.90;;;;;;4974225;28;20192;-66
2023/04/16 01:11:57;;;;;;;11.03;9.17;;;8.50;99.90;;;;;;4975386;28;20249;-66
2023/04/16 01:14:22;;;;;;;11.37;9.17;;;8.50;99.90;;;;;;4960101;28;20234;-67
2023/04/16 01:16:48;;;;;;;11.03;9.27;;;8.50;99.90;;;;;;4955933;29;20216;-66
2023/04/16 01:19:13;;;;;;;9.37;8.67;;;8.50;99.90;;;;;;4968019;28;20249;-66
2023/04/16 01:21:39;;;;;;;10.40;9.40;;;8.50;99.90;;;;;;4975051;28;20168;-66
2023/04/16 01:24:05;;;;;;;10.20;8.97;;;8.50;99.90;;;;;;4962940;28;20253;-66
2023/04/16 01:26:30;;;;;;;12.03;9.20;;;8.50;99.90;;;;;;4955130;29;20214;-67
2023/04/16 01:28:56;;;;;;;10.10;8.53;;;8.50;99.90;;;;;;4964635;28;20181;-64
2023/04/16 01:31:22;;;;;;;10.37;9.13;;;8.40;99.90;;;;;;4957132;28;20177;-65
2023/04/16 01:33:47;;;;;;;12.40;8.00;;;8.40;99.90;;;;;;4967361;28;20229;-65
2023/04/16 01:36:13;;;;;;;9.70;8.77;;;8.40;99.90;;;;;;4955589;28;20197;-65
2023/04/16 01:38:38;;;;;;;11.20;10.13;;;8.40;99.90;;;;;;4974685;28;20170;-67
2023/04/16 01:41:04;;;;;;;8.93;7.83;;;8.30;99.90;;;;;;4967815;28;20209;-67
2023/04/16 01:43:30;;;;;;;11.53;8.87;;;8.30;99.90;;;;;;4954776;28;20218;-66
2023/04/16 01:46:11;;;;;;;8.97;8.17;;;8.40;99.90;;;;;;4959775;28;20201;-67
2023/04/16 01:48:36;;;;;;;9.33;8.43;;;8.30;99.90;;;;;;4974533;28;20204;-67
2023/04/16 01:51:03;;;;;;;8.93;8.23;;;8.30;99.90;;;;;;4969276;28;20508;-67
2023/04/16 01:53:29;;;;;;;9.57;8.77;;;8.30;99.90;;;;;;4955023;29;20249;-66
2023/04/16 01:55:54;;;;;;;10.20;9.20;;;8.30;99.90;;;;;;4956288;28;20273;-67
2023/04/16 01:58:20;;;;;;;10.13;9.13;;;8.30;99.90;;;;;;4954976;29;20651;-67
2023/04/16 02:00:46;;;;;;;10.27;8.27;;;8.30;99.90;;;;;;4938387;29;20180;-67
2023/04/16 02:03:11;;;;;;;10.30;8.00;;;8.40;99.90;;;;;;4955055;29;20182;-65
2023/04/16 02:05:37;;;;;;;12.10;9.63;;;8.40;99.90;;;;;;4966359;28;20213;-67
2023/04/16 02:08:02;;;;;;;9.60;8.27;;;8.30;99.90;;;;;;4974329;28;20181;-66
2023/04/16 02:10:28;;;;;;;11.17;8.30;;;8.30;99.90;;;;;;4963641;28;20257;-67
2023/04/16 02:12:54;;;;;;;10.33;9.37;;;8.30;99.90;;;;;;4966847;28;20212;-66
2023/04/16 02:15:19;;;;;;;10.60;8.50;;;8.30;99.90;;;;;;4965382;28;20206;-65
2023/04/16 02:17:46;;;;;;;11.77;8.33;;;8.30;99.90;;;;;;4954988;29;20174;-66
2023/04/16 02:20:12;;;;;;;10.83;9.23;;;8.30;99.90;;;;;;4954630;28;20170;-66
2023/04/16 02:22:38;;;;;;;14.10;9.17;;;8.40;99.90;;;;;;4958955;28;20193;-66
2023/04/16 02:25:03;;;;;;;15.20;8.67;;;8.40;99.90;;;;;;4973754;28;20189;-67
2023/04/16 02:27:29;;;;;;;9.73;8.83;;;8.40;99.90;;;;;;4971053;28;20546;-66
2023/04/16 02:29:55;;;;;;;13.23;8.60;;;8.40;99.90;;;;;;4954556;29;20249;-66
2023/04/16 02:32:21;;;;;;;9.50;8.57;;;8.40;99.90;;;;;;4955118;28;20590;-66
2023/04/16 02:34:46;;;;;;;11.33;9.43;;;8.40;99.90;;;;;;4973768;28;20192;-67
2023/04/16 02:37:14;;;;;;;14.23;10.13;;;8.40;99.90;;;;;;4973324;28;20778;-65
2023/04/16 02:39:40;;;;;;;11.77;9.97;;;8.40;99.90;;;;;;4954481;28;20178;-67
2023/04/16 02:42:05;;;;;;;10.87;8.57;;;8.50;99.90;;;;;;4954470;28;20652;-66
2023/04/16 02:44:31;;;;;;;13.13;9.93;;;8.50;99.90;;;;;;4954374;28;20233;-67
2023/04/16 02:46:56;;;;;;;13.43;9.80;;;8.40;99.90;;;;;;4954342;29;20675;-67
2023/04/16 02:49:22;;;;;;;14.73;9.90;;;8.40;99.90;;;;;;4969185;28;20256;-67
2023/04/16 02:51:47;;;;;;;18.60;11.70;;;8.50;99.90;;;;;;4973677;28;20180;-66
2023/04/16 02:54:13;;;;;;;12.20;9.27;;;8.50;99.90;;;;;;4959584;28;20210;-66
2023/04/16 02:56:38;;;;;;;11.00;9.87;;;8.50;99.90;;;;;;4953903;29;20292;-66
2023/04/16 02:59:04;;;;;;;12.97;10.67;;;8.50;99.90;;;;;;4965871;28;20232;-67
2023/04/16 03:01:30;;;;;;;11.43;9.80;;;8.50;99.90;;;;;;4958616;28;20189;-67
2023/04/16 03:03:55;;;;;;;21.57;10.50;;;8.50;99.90;;;;;;4964153;28;20186;-66
2023/04/16 03:06:21;;;;;;;11.83;10.63;;;8.50;99.90;;;;;;4973017;28;20193;-66
2023/04/16 03:08:46;;;;;;;12.83;9.87;;;8.40;99.90;;;;;;4964122;28;20226;-66
2023/04/16 03:11:12;;;;;;;12.00;10.80;;;8.40;99.90;;;;;;4953538;29;20166;-67
2023/04/16 03:13:39;;;;;;;14.27;10.83;;;8.40;99.90;;;;;;4960503;28;20687;-67
2023/04/16 03:16:04;;;;;;;14.27;11.17;;;8.40;99.90;;;;;;4973058;28;20240;-67
2023/04/16 03:18:30;;;;;;;12.87;11.67;;;8.50;99.90;;;;;;4970793;28;20174;-67
2023/04/16 03:20:56;;;;;;;13.13;11.03;;;8.50;99.90;;;;;;4972423;28;20177;-66
2023/04/16 03:23:21;;;;;;;14.23;10.53;;;8.50;99.90;;;;;;4936278;28;20221;-67
2023/04/16 03:25:47;;;;;;;13.93;10.00;;;8.40;99.90;;;;;;4954142;29;20263;-65
2023/04/16 03:28:13;;;;;;;19.00;10.97;;;8.40;99.90;;;;;;4970786;28;20186;-66
2023/04/16 03:30:39;;;;;;;11.00;10.00;;;8.40;99.90;;;;;;4972401;28;20177;-66
2023/04/16 03:33:05;;;;;;;12.63;10.63;;;8.40;99.90;;;;;;4956603;28;20209;-65
2023/04/16 03:35:31;;;;;;;17.37;10.73;;;8.40;99.90;;;;;;4954365;28;20205;-66
2023/04/16 03:37:56;;;;;;;12.27;10.23;;;8.40;99.90;;;;;;4953636;29;20174;-65
2023/04/16 03:40:22;;;;;;;26.83;11.00;;;8.40;99.90;;;;;;4956961;28;20177;-66
2023/04/16 03:42:48;;;;;;;16.17;11.77;;;8.40;99.90;;;;;;4972811;28;20607;-66
2023/04/16 03:45:14;;;;;;;18.03;10.37;;;8.50;99.90;;;;;;4968999;28;20568;-66
2023/04/16 03:47:39;;;;;;;18.20;11.47;;;8.40;99.90;;;;;;4952626;28;20547;-66
2023/04/16 03:50:05;;;;;;;15.73;11.43;;;8.40;99.90;;;;;;4953733;28;20185;-65
2023/04/16 03:52:31;;;;;;;12.63;10.33;;;8.40;99.90;;;;;;4953107;28;20209;-65
2023/04/16 03:54:56;;;;;;;14.37;11.33;;;8.40;99.90;;;;;;4953231;29;20181;-66
2023/04/16 03:57:22;;;;;;;12.10;10.67;;;8.50;99.90;;;;;;4971488;28;20256;-66
2023/04/16 03:59:47;;;;;;;15.67;11.30;;;8.50;99.90;;;;;;4972242;28;20574;-65
2023/04/16 04:02:13;;;;;;;15.07;11.73;;;8.50;99.90;;;;;;4955200;28;20193;-65
2023/04/16 04:04:39;;;;;;;13.23;11.77;;;8.50;99.90;;;;;;4953056;29;20597;-65
2023/04/16 04:07:05;;;;;;;16.20;11.70;;;8.50;99.90;;;;;;4968148;28;20229;-65
2023/04/16 04:09:30;;;;;;;13.30;11.30;;;8.40;99.90;;;;;;4953807;28;20217;-65
2023/04/16 04:11:56;;;;;;;14.40;10.50;;;8.40;99.90;;;;;;4953189;29;20226;-66
2023/04/16 04:14:22;;;;;;;18.90;12.13;;;8.40;99.90;;;;;;4953029;29;20213;-65
2023/04/16 04:16:47;;;;;;;18.87;11.60;;;8.40;99.90;;;;;;4969905;28;20201;-65
2023/04/16 04:19:13;;;;;;;13.03;11.73;;;8.40;99.90;;;;;;4972129;28;20756;-65
2023/04/16 04:21:38;;;;;;;15.77;11.90;;;8.30;99.90;;;;;;4955684;28;20182;-65
2023/04/16 04:24:04;;;;;;;15.93;10.90;;;8.40;99.90;;;;;;4953145;28;20182;-64
2023/04/16 04:26:29;;;;;;;17.80;12.50;;;8.40;99.90;;;;;;4952847;29;20248;-65
2023/04/16 04:28:55;;;;;;;23.53;11.87;;;8.40;99.90;;;;;;4952191;28;20219;-65
2023/04/16 04:31:20;;;;;;;15.90;11.70;;;8.40;99.90;;;;;;4972186;28;20186;-66
2023/04/16 04:33:46;;;;;;;15.43;11.50;;;8.40;99.90;;;;;;4956661;28;20213;-66
2023/04/16 04:36:12;;;;;;;14.77;10.97;;;8.40;99.90;;;;;;4952782;28;20194;-65
2023/04/16 04:38:37;;;;;;;13.93;10.80;;;8.40;99.90;;;;;;4966112;28;20642;-66
2023/04/16 04:41:03;;;;;;;19.13;11.07;;;8.50;99.90;;;;;;4972014;28;20189;-65
2023/04/16 04:43:28;;;;;;;16.67;12.20;;;8.50;99.90;;;;;;4959842;28;20193;-65
2023/04/16 04:45:54;;;;;;;16.07;11.77;;;8.50;99.90;;;;;;4953497;28;20206;-64
2023/04/16 04:48:25;;;;;;;13.97;10.83;;;8.50;99.90;;;;;;4945402;28;20190;-64
2023/04/16 04:50:50;;;;;;;17.40;11.20;;;8.50;99.90;;;;;;4971773;28;20174;-64
2023/04/16 04:53:16;;;;;;;17.27;11.30;;;8.50;99.90;;;;;;4970225;28;20228;-65
2023/04/16 04:55:41;;;;;;;15.40;12.10;;;8.50;99.90;;;;;;4972041;28;20228;-65
2023/04/16 04:58:07;;;;;;;16.60;11.30;;;8.50;99.90;;;;;;4964347;28;20277;-64
2023/04/16 05:00:35;;;;;;;15.43;10.90;;;8.50;99.90;;;;;;4955303;29;20190;-65
2023/04/16 05:03:08;;;;;;;12.80;11.63;;;8.60;99.90;;;;;;4958383;28;20174;-65
2023/04/16 05:05:34;;;;;;;12.73;11.07;;;8.60;99.90;;;;;;4964544;28;20214;-64
2023/04/16 05:07:59;;;;;;;15.63;10.70;;;8.60;99.90;;;;;;4956023;29;20269;-65
2023/04/16 05:10:26;;;;;;;15.50;10.93;;;8.60;99.90;;;;;;4955654;29;20175;-65
2023/04/16 05:12:51;;;;;;;11.37;10.23;;;8.60;99.90;;;;;;4958571;28;20205;-65
2023/04/16 05:15:17;;;;;;;19.40;11.13;;;8.60;99.90;;;;;;4975210;28;20204;-66
2023/04/16 05:17:42;;;;;;;16.90;10.50;;;8.60;99.90;;;;;;4973510;28;20189;-65
2023/04/16 05:20:08;;;;;;;17.63;11.33;;;8.60;99.90;;;;;;4955544;28;20182;-67
2023/04/16 05:22:34;;;;;;;14.53;9.23;;;8.60;99.90;;;;;;4956779;28;20803;-66
2023/04/16 05:25:00;;;;;;;15.20;12.87;;;8.60;99.90;;;;;;4955691;29;20186;-66
2023/04/16 05:27:25;;;;;;;24.40;15.23;;;8.60;99.90;;;;;;4965701;28;20564;-65
2023/04/16 05:29:51;;;;;;;15.60;12.37;;;8.60;99.90;;;;;;4974664;28;20520;-65
2023/04/16 05:32:17;;;;;;;18.23;11.33;;;8.70;99.90;;;;;;4974473;28;20193;-65
2023/04/16 05:34:42;;;;;;;17.17;11.03;;;8.60;99.90;;;;;;4974800;28;20192;-65
2023/04/16 05:37:08;;;;;;;13.60;10.20;;;8.60;99.90;;;;;;4970532;28;20663;-64
2023/04/16 05:39:33;;;;;;;14.23;10.37;;;8.60;99.90;;;;;;4956888;28;20178;-64
2023/04/16 05:41:59;;;;;;;18.80;12.23;;;8.70;99.90;;;;;;4959076;28;20193;-65
2023/04/16 05:44:25;;;;;;;16.53;11.90;;;8.70;99.90;;;;;;4954639;28;20257;-65
2023/04/16 05:46:51;;;;;;;10.60;9.60;;;8.70;99.90;;;;;;4969669;28;20247;-64
2023/04/16 05:49:20;;;;;;;17.10;11.13;;;8.70;99.90;;;;;;4974329;28;20585;-64
2023/04/16 05:51:47;;;;;;;10.87;9.53;;;8.70;99.90;;;;;;4960809;28;20553;-65
2023/04/16 05:54:12;;;;;;;14.17;11.47;;;8.70;99.90;;;;;;4955615;29;20547;-64
2023/04/16 05:56:38;;;;;;;22.70;12.00;;;8.70;99.90;;;;;;4965799;28;20220;-64
2023/04/16 05:59:03;;;;;;;18.77;12.23;;;8.70;99.90;;;;;;4974428;28;20246;-64
2023/04/16 06:01:29;;;;;;;16.17;11.33;;;8.70;99.90;;;;;;4965563;28;20549;-66
2023/04/16 06:03:54;;;;;;;18.77;12.17;;;8.80;99.90;;;;;;4974088;28;20185;-66
2023/04/16 06:06:20;;;;;;;15.90;11.20;;;8.80;99.90;;;;;;4965409;28;20301;-65
2023/04/16 06:08:46;;;;;;;15.63;11.30;;;8.80;99.90;;;;;;4969531;28;20181;-64
2023/04/16 06:11:11;;;;;;;18.07;11.70;;;8.80;99.90;;;;;;4972571;28;20647;-65
2023/04/16 06:13:38;;;;;;;13.33;10.80;;;8.80;99.90;;;;;;4956529;28;20244;-65
2023/04/16 06:16:03;;;;;;;17.00;11.57;;;8.80;99.90;;;;;;4972286;28;20314;-66
2023/04/16 06:18:29;;;;;;;21.63;12.70;;;8.80;99.90;;;;;;4973911;28;20618;-66
2023/04/16 06:20:55;;;;;;;18.53;11.70;;;8.80;99.90;;;;;;4971889;28;20177;-65
2023/04/16 06:23:20;;;;;;;17.23;10.40;;;8.80;99.90;;;;;;4954447;28;20186;-65
2023/04/16 06:25:46;;;;;;;21.53;13.97;;;8.90;99.90;;;;;;4954280;29;20217;-64
2023/04/16 06:28:11;;;;;;;15.53;11.17;;;8.80;99.90;;;;;;4954437;28;20656;-65
2023/04/16 06:30:38;;;;;;;19.53;11.27;;;8.80;99.90;;;;;;4972744;28;20192;-64
2023/04/16 06:33:04;;;;;;;15.27;11.40;;;8.80;99.90;;;;;;4971879;28;20206;-65
2023/04/16 06:35:29;;;;;;;11.67;10.50;;;8.80;99.90;;;;;;4969897;28;20261;-64
2023/04/16 06:37:55;;;;;;;13.23;11.60;;;8.80;99.90;;;;;;4954537;28;20612;-65
2023/04/16 06:40:21;;;;;;;13.27;11.60;;;8.80;99.90;;;;;;4955176;28;20261;-65
2023/04/16 06:42:47;;;;;;;14.53;10.33;;;8.80;99.90;;;;;;4973430;28;20598;-66
2023/04/16 06:45:12;;;;;;;17.80;10.43;;;8.80;99.90;;;;;;4971978;28;20181;-65
2023/04/16 06:47:38;;;;;;;14.33;10.63;;;8.70;99.90;;;;;;4936887;29;20324;-65
2023/04/16 06:50:04;;;;;;;22.90;12.27;;;8.70;99.90;;;;;;4954802;28;20198;-65
2023/04/16 06:52:30;;;;;;;13.60;10.87;;;8.80;99.90;;;;;;4953801;29;20186;-64
2023/04/16 06:54:55;;;;;;;12.90;10.43;;;8.80;99.90;;;;;;4967170;28;20177;-64
2023/04/16 06:57:21;;;;;;;14.87;10.23;;;8.80;99.90;;;;;;4973109;28;20174;-65
2023/04/16 06:59:47;;;;;;;14.93;10.80;;;8.80;99.90;;;;;;4960866;28;20182;-65
2023/04/16 07:02:12;;;;;;;12.83;10.50;;;8.80;99.90;;;;;;4953800;29;20554;-65
2023/04/16 07:04:38;;;;;;;14.43;10.13;;;8.80;99.90;;;;;;4963414;28;20189;-66
2023/04/16 07:07:03;;;;;;;11.20;10.07;;;8.80;99.90;;;;;;4971339;28;20245;-64
2023/04/16 07:09:29;;;;;;;12.77;9.90;;;8.80;99.90;;;;;;4964021;28;20189;-66
2023/04/16 07:11:54;;;;;;;11.10;10.00;;;8.80;99.90;;;;;;4954012;29;20663;-66
2023/04/16 07:14:20;;;;;;;18.60;9.83;;;8.80;99.90;;;;;;4954613;28;20206;-64
2023/04/16 07:16:46;;;;;;;16.10;10.60;;;8.90;99.90;;;;;;4953431;29;20190;-64
2023/04/16 07:19:11;;;;;;;11.17;9.00;;;8.90;99.90;;;;;;4968022;28;20178;-66
2023/04/16 07:21:37;;;;;;;11.87;9.57;;;8.90;99.90;;;;;;4972828;28;20611;-64
2023/04/16 07:24:03;;;;;;;12.03;9.80;;;8.90;99.90;;;;;;4941968;29;20186;-64
2023/04/16 07:26:29;;;;;;;11.83;9.70;;;9.00;99.90;;;;;;4936110;29;20284;-64
2023/04/16 07:28:54;;;;;;;16.93;10.60;;;9.00;99.90;;;;;;4965179;28;20912;-65
2023/04/16 07:31:20;;;;;;;10.53;9.43;;;9.00;99.90;;;;;;4972438;28;20177;-65
2023/04/16 07:33:45;;;;;;;10.07;9.07;;;9.00;99.90;;;;;;4962598;28;20209;-64
2023/04/16 07:36:11;;;;;;;15.33;10.13;;;9.00;99.90;;;;;;4953480;28;20233;-64
2023/04/16 07:38:37;;;;;;;10.40;9.23;;;9.00;99.90;;;;;;4961568;28;20182;-65
2023/04/16 07:41:02;;;;;;;10.67;9.57;;;9.00;99.90;;;;;;4972425;28;20166;-65
2023/04/16 07:43:28;;;;;;;14.40;9.97;;;9.10;99.90;;;;;;4965885;28;20212;-65
2023/04/16 07:45:54;;;;;;;14.60;9.67;;;9.20;99.90;;;;;;4953219;29;20271;-66
2023/04/16 07:48:20;;;;;;;10.47;9.47;;;9.30;99.90;;;;;;4957637;28;20574;-66
2023/04/16 07:50:45;;;;;;;13.73;9.53;;;9.30;99.90;;;;;;4972281;28;20174;-66
2023/04/16 07:53:11;;;;;;;13.50;10.70;;;9.30;99.90;;;;;;4968990;28;20573;-65
2023/04/16 07:55:37;;;;;;;20.53;13.73;;;9.30;99.90;;;;;;4954170;28;20205;-66
2023/04/16 07:58:02;;;;;;;22.43;14.80;;;9.30;99.90;;;;;;4954441;28;20270;-65
2023/04/16 08:00:28;;;;;;;28.40;16.80;;;9.20;99.90;;;;;;4972239;28;20181;-66
2023/04/16 08:02:54;;;;;;;33.50;14.97;;;9.20;99.90;;;;;;4957915;28;20186;-66
2023/04/16 08:05:20;;;;;;;22.27;15.10;;;9.20;99.90;;;;;;4952945;29;20570;-66
2023/04/16 08:07:45;;;;;;;31.07;17.37;;;9.20;99.90;;;;;;4965226;28;20746;-65
2023/04/16 08:10:11;;;;;;;27.47;17.00;;;9.30;99.90;;;;;;4971986;28;20169;-66
2023/04/16 08:12:37;;;;;;;31.23;19.07;;;9.30;99.90;;;;;;4961192;28;20692;-64
2023/04/16 08:15:03;;;;;;;26.90;18.30;;;9.40;99.90;;;;;;4952836;29;20201;-66
2023/04/16 08:17:29;;;;;;;31.90;18.33;;;9.50;99.90;;;;;;4961625;28;20182;-65
2023/04/16 08:19:55;;;;;;;30.40;17.80;;;9.70;99.90;;;;;;4969416;28;20192;-65
2023/04/16 08:22:21;;;;;;;27.93;16.33;;;9.70;99.90;;;;;;4970991;28;20204;-66
2023/04/16 08:24:47;;;;;;;26.00;17.17;;;9.70;99.90;;;;;;4972016;28;20196;-66
2023/04/16 08:27:12;;;;;;;40.07;18.63;;;9.80;99.90;;;;;;4963071;28;20205;-66
2023/04/16 08:29:38;;;;;;;40.53;21.17;;;9.80;99.90;;;;;;4963047;28;20253;-64
2023/04/16 08:32:04;;;;;;;36.10;22.13;;;9.80;99.90;;;;;;4952800;29;20265;-65
2023/04/16 08:34:29;;;;;;;44.53;24.00;;;9.80;99.90;;;;;;4954465;28;20202;-65
2023/04/16 08:36:55;;;;;;;42.23;22.80;;;9.80;99.90;;;;;;4961839;28;20221;-66
2023/04/16 08:39:20;;;;;;;44.17;23.60;;;9.90;99.90;;;;;;4975300;28;20248;-66
2023/04/16 08:41:46;;;;;;;37.67;21.27;;;10.00;99.90;;;;;;4971298;28;20185;-64
2023/04/16 08:44:31;;;;;;;41.17;21.13;;;10.20;99.90;;;;;;4955413;28;20170;-65
2023/04/16 08:46:59;;;;;;;39.17;19.20;;;10.30;99.90;;;;;;4960947;28;20201;-67
2023/04/16 08:49:25;;;;;;;43.40;19.07;;;10.40;99.90;;;;;;4975178;28;20548;-65
2023/04/16 08:51:52;;;;;;;35.20;18.00;;;10.60;99.90;;;;;;4968528;28;20185;-65
2023/04/16 08:54:42;;;;;;;32.13;18.87;;;10.80;99.90;;;;;;4956148;28;20292;-66
2023/04/16 08:57:10;;;;;;;34.03;19.13;;;11.10;99.90;;;;;;4957311;28;20330;-66
2023/04/16 08:59:37;;;;;;;35.07;18.37;;;11.40;99.90;;;;;;4960754;28;20498;-65
2023/04/16 09:02:04;;;;;;;36.63;18.17;;;11.70;99.90;;;;;;4975341;28;20562;-66
2023/04/16 09:04:31;;;;;;;38.60;19.33;;;11.90;99.90;;;;;;4956115;28;20179;-67
2023/04/16 09:06:58;;;;;;;32.80;18.57;;;12.10;99.90;;;;;;4974964;28;20194;-65
2023/04/16 09:09:26;;;;;;;38.13;18.30;;;12.10;99.90;;;;;;4972776;28;20208;-65
2023/04/16 09:11:52;;;;;;;39.00;22.60;;;12.10;99.90;;;;;;4955961;28;20194;-66
2023/04/16 09:14:18;;;;;;;44.80;23.03;;;12.20;99.90;;;;;;4956914;28;20220;-66
2023/04/16 09:16:46;;;;;;;35.60;22.67;;;12.50;99.90;;;;;;4964425;28;20210;-66
2023/04/16 09:19:12;;;;;;;40.50;21.80;;;12.60;99.90;;;;;;4955616;29;20174;-64
2023/04/16 09:21:40;;;;;;;27.37;16.77;;;12.80;99.90;;;;;;4963322;28;20181;-66
2023/04/16 09:24:08;;;;;;;21.63;15.30;;;12.90;99.90;;;;;;4972882;28;20193;-66
2023/04/16 09:26:34;;;;;;;25.73;15.37;;;12.90;99.90;;;;;;4974447;28;20305;-66
2023/04/16 09:29:00;;;;;;;26.30;15.83;;;12.90;99.90;;;;;;4974928;28;20252;-66
2023/04/16 09:31:26;;;;;;;23.17;15.53;;;12.90;99.90;;;;;;4972910;28;20723;-66
2023/04/16 09:34:05;;;;;;;16.47;13.03;;;13.10;99.90;;;;;;4974697;28;20204;-66
2023/04/16 09:36:31;;;;;;;23.50;14.83;;;13.20;99.90;;;;;;4972872;28;20324;-65
2023/04/16 09:38:58;;;;;;;17.90;13.47;;;13.30;99.90;;;;;;4974651;28;20609;-65
2023/04/16 09:41:26;;;;;;;20.07;13.93;;;13.40;99.90;;;;;;4973885;28;20188;-66
2023/04/16 09:44:00;;;;;;;23.80;15.40;;;13.30;99.90;;;;;;4973715;28;20542;-64
2023/04/16 09:46:42;;;;;;;19.53;14.57;;;13.20;99.90;;;;;;4971519;28;20296;-64
2023/04/16 09:49:15;;;;;;;24.83;16.30;;;13.20;99.90;;;;;;4974331;28;20746;-65
2023/04/16 09:51:42;;;;;;;24.50;16.77;;;13.20;99.90;;;;;;4959159;28;20210;-64
2023/04/16 09:54:08;;;;;;;31.60;17.97;;;13.20;99.90;;;;;;4937997;29;20198;-65
2023/04/16 09:56:44;;;;;;;23.77;15.53;;;13.10;99.90;;;;;;4955905;28;20202;-64
2023/04/16 09:59:23;;;;;;;34.13;21.57;;;13.10;99.90;;;;;;4954814;29;20533;-64
2023/04/16 10:01:51;;;;;;;24.00;15.63;;;13.10;99.90;;;;;;4969519;28;20200;-65
2023/04/16 10:04:17;;;;;;;25.87;15.57;;;13.10;99.90;;;;;;4974429;28;20225;-66
2023/04/16 10:06:43;;;;;;;23.67;15.80;;;13.10;99.90;;;;;;4960319;28;20210;-65
2023/04/16 10:09:09;;;;;;;19.83;14.00;;;13.00;99.90;;;;;;4954644;29;20167;-65
2023/04/16 10:11:35;;;;;;;24.43;16.23;;;12.90;99.90;;;;;;4966321;28;20244;-65
2023/04/16 10:14:01;;;;;;;41.93;21.67;;;12.80;99.90;;;;;;4974037;28;20201;-65
2023/04/16 10:16:29;;;;;;;21.63;13.63;;;12.70;99.90;;;;;;4963227;28;20213;-65
2023/04/16 10:18:55;;;;;;;33.33;19.83;;;12.60;99.90;;;;;;4954365;29;20182;-66
2023/04/16 10:21:21;;;;;;;33.27;19.20;;;12.60;99.90;;;;;;4968888;28;20648;-65
2023/04/16 10:23:48;;;;;;;18.30;14.00;;;12.60;99.90;;;;;;4973700;28;20243;-65
2023/04/16 10:26:16;;;;;;;17.83;14.13;;;12.60;99.90;;;;;;4963772;28;20212;-65
2023/04/16 10:28:44;;;;;;;44.07;23.63;;;12.60;99.90;;;;;;4973644;28;20181;-65
2023/04/16 10:31:10;;;;;;;29.73;18.10;;;12.80;99.90;;;;;;4960541;28;20293;-67
2023/04/16 10:33:39;;;;;;;18.97;14.47;;;13.00;99.90;;;;;;4954162;29;20277;-65
2023/04/16 10:36:15;;;;;;;22.77;14.90;;;13.00;99.90;;;;;;4965509;28;20202;-65
2023/04/16 10:38:45;;;;;;;32.00;17.60;;;13.00;99.90;;;;;;4973637;28;20216;-66
2023/04/16 10:41:10;;;;;;;23.10;16.40;;;13.10;99.90;;;;;;4961496;28;20256;-66
2023/04/16 10:43:42;;;;;;;24.53;16.57;;;13.10;99.90;;;;;;4954262;29;20226;-65
2023/04/16 10:46:25;;;;;;;23.27;14.97;;;13.10;99.90;;;;;;4964633;28;20205;-65
2023/04/16 10:48:58;;;;;;;21.50;15.20;;;13.00;99.90;;;;;;4972413;28;20308;-65
2023/04/16 10:51:30;;;;;;;21.97;15.50;;;13.00;99.90;;;;;;4960603;28;20544;-65
2023/04/16 10:54:16;;;;;;;27.57;17.43;;;12.80;99.90;;;;;;4954094;29;20205;-65
2023/04/16 10:56:43;;;;;;;21.10;13.40;;;12.80;99.90;;;;;;4953985;28;20292;-65
2023/04/16 10:59:10;;;;;;;21.57;15.33;;;13.00;99.90;;;;;;4972981;28;20174;-65
2023/04/16 11:01:57;;;;;;;15.13;12.83;;;13.30;99.90;;;;;;4960626;28;20209;-66
2023/04/16 11:04:23;;;;;;;18.10;13.60;;;13.60;99.90;;;;;;4953944;29;20182;-65
2023/04/16 11:07:10;;;;;;;24.53;13.70;;;14.00;99.90;;;;;;4966944;28;20260;-65
2023/04/16 11:09:50;;;;;;;17.77;13.77;;;14.30;99.90;;;;;;4972717;28;20215;-65
2023/04/16 11:12:23;;;;;;;17.10;13.70;;;14.60;99.90;;;;;;4969141;28;20181;-66
2023/04/16 11:14:48;;;;;;;17.60;12.03;;;14.80;99.90;;;;;;4972006;28;20205;-66
2023/04/16 11:17:14;;;;;;;21.07;12.87;;;14.90;99.90;;;;;;4972677;28;20689;-66
2023/04/16 11:19:41;;;;;;;17.07;12.83;;;15.10;99.90;;;;;;4965583;28;20190;-66
2023/04/16 11:22:07;;;;;;;16.67;13.30;;;15.40;99.90;;;;;;4960784;28;20182;-65
2023/04/16 11:24:33;;;;;;;15.60;12.03;;;15.60;99.90;;;;;;4970903;28;20524;-66
2023/04/16 11:27:00;;;;;;;15.63;12.00;;;15.60;99.90;;;;;;4953309;28;20210;-65
2023/04/16 11:29:26;;;;;;;18.47;12.47;;;15.50;99.90;;;;;;4956337;28;20181;-65
2023/04/16 11:31:53;;;;;;;15.43;10.53;;;15.30;99.90;;;;;;4972669;28;20180;-65
2023/04/16 11:34:19;;;;;;;13.47;11.33;;;15.10;99.90;;;;;;4970191;28;20316;-64
2023/04/16 11:36:45;;;;;;;15.60;13.03;;;14.80;99.90;;;;;;4953338;29;20194;-64
2023/04/16 11:39:11;;;;;;;15.30;13.70;;;14.70;99.90;;;;;;4966735;28;20185;-64
2023/04/16 11:41:44;;;;;;;16.37;13.03;;;14.40;99.90;;;;;;4972630;28;20185;-64
2023/04/16 11:44:20;;;;;;;15.77;12.07;;;14.10;99.90;;;;;;4953778;28;20608;-64
2023/04/16 11:46:46;;;;;;;18.50;12.57;;;14.00;99.90;;;;;;4953267;28;20198;-64
2023/04/16 11:49:11;;;;;;;16.77;12.07;;;13.90;99.90;;;;;;4961231;28;20193;-64
2023/04/16 11:51:41;;;;;;;16.40;12.77;;;13.90;99.90;;;;;;4971076;28;20591;-64
2023/04/16 11:54:07;;;;;;;14.67;12.27;;;14.10;99.90;;;;;;4972592;28;20290;-65
2023/04/16 11:56:34;;;;;;;15.67;12.43;;;14.30;99.90;;;;;;4955059;28;20658;-65
2023/04/16 11:59:17;;;;;;;19.57;12.77;;;14.50;99.90;;;;;;4953113;28;20633;-65
2023/04/16 12:01:52;;;;;;;18.23;12.60;;;14.60;99.90;;;;;;4953234;29;20174;-65
2023/04/16 12:04:20;;;;;;;22.27;12.57;;;14.80;99.90;;;;;;4955359;28;20189;-67
2023/04/16 12:07:05;;;;;;;13.23;11.33;;;14.90;99.90;;;;;;4972454;28;20248;-66
2023/04/16 12:09:31;;;;;;;18.07;13.40;;;15.00;99.90;;;;;;4970786;28;20206;-66
2023/04/16 12:11:56;;;;;;;23.20;13.77;;;15.40;99.90;;;;;;4956983;29;20205;-67
2023/04/16 12:14:22;;;;;;;13.73;11.40;;;16.00;99.90;;;;;;4940660;28;20255;-66
2023/04/16 12:16:48;;;;;;;19.00;12.37;;;16.30;99.90;;;;;;4969331;28;20213;-66
2023/04/16 12:19:14;;;;;;;19.53;11.83;;;16.40;99.90;;;;;;4964252;28;20185;-67
2023/04/16 12:21:45;;;;;;;23.83;13.60;;;16.40;99.90;;;;;;4964723;28;20260;-66
2023/04/16 12:24:13;;;;;;;16.87;12.27;;;16.30;99.90;;;;;;4976282;28;20647;-67
2023/04/16 12:26:47;;;;;;;20.47;13.30;;;16.30;99.90;;;;;;4964282;28;20272;-63
2023/04/16 12:29:33;;;;;;;19.83;12.63;;;16.20;99.90;;;;;;4956358;28;20225;-65
2023/04/16 12:31:58;;;;;;;15.17;10.70;;;16.10;99.90;;;;;;4956330;29;20190;-66
2023/04/16 12:34:24;;;;;;;12.77;10.83;;;16.10;99.90;;;;;;4939241;29;20628;-66
2023/04/16 12:37:06;;;;;;;15.73;11.07;;;15.80;99.90;;;;;;4956737;29;20197;-65